createdAt,value
2023-01-23T00:01:26.638Z,14.75
2023-01-23T00:03:55.551Z,15.13
2023-01-23T00:06:23.636Z,14.70
2023-01-23T00:08:51.440Z,13.00
2023-01-23T00:11:22.642Z,13.20
2023-01-23T00:13:50.781Z,14.70
2023-01-23T00:16:21.505Z,11.20
2023-01-23T00:18:50.227Z,14.27
2023-01-23T00:21:20.815Z,13.23
2023-01-23T00:23:50.693Z,12.90
2023-01-23T00:26:20.752Z,11.40
2023-01-23T00:28:49.551Z,14.60
2023-01-23T00:31:20.405Z,11.63
2023-01-23T00:34:03.939Z,14.50
2023-01-23T00:36:34.743Z,10.50
2023-01-23T00:39:03.859Z,13.18
2023-01-23T00:41:31.320Z,12.15
2023-01-23T00:43:59.077Z,11.10
2023-01-23T00:46:26.680Z,13.63
2023-01-23T00:48:54.215Z,9.38
2023-01-23T00:51:21.766Z,10.18
2023-01-23T00:53:49.493Z,10.07
2023-01-23T00:56:17.172Z,8.70
2023-01-23T00:58:45.379Z,9.98
2023-01-23T01:01:14.422Z,7.47
2023-01-23T01:03:42.812Z,8.20
2023-01-23T01:06:11.088Z,8.77
2023-01-23T01:08:39.003Z,11.00
2023-01-23T01:11:07.011Z,7.25
2023-01-23T01:13:35.174Z,10.25
2023-01-23T01:16:02.918Z,8.05
2023-01-23T01:18:30.781Z,11.00
2023-01-23T01:20:59.098Z,10.88
2023-01-23T01:23:26.888Z,12.10
2023-01-23T01:25:59.441Z,10.40
2023-01-23T01:28:30.324Z,9.63
2023-01-23T01:30:58.778Z,9.10
2023-01-23T01:33:28.619Z,10.15
2023-01-23T01:35:57.092Z,9.18
2023-01-23T01:38:24.963Z,11.15
2023-01-23T01:40:52.763Z,12.45
2023-01-23T01:43:26.099Z,18.05
2023-01-23T01:46:14.197Z,12.55
2023-01-23T01:48:56.135Z,11.13
2023-01-23T01:51:29.482Z,14.07
2023-01-23T01:54:23.348Z,14.30
2023-01-23T01:57:12.143Z,14.40
2023-01-23T02:00:00.674Z,16.10
2023-01-23T02:02:33.019Z,15.15
2023-01-23T02:05:07.408Z,12.60
2023-01-23T02:07:57.819Z,12.40
2023-01-23T02:10:25.703Z,16.15
2023-01-23T02:12:53.597Z,13.95
2023-01-23T02:15:22.637Z,14.65
2023-01-23T02:17:53.130Z,12.90
2023-01-23T02:20:26.894Z,11.68
2023-01-23T02:22:57.748Z,13.32
2023-01-23T02:25:31.745Z,13.57
2023-01-23T02:27:59.697Z,12.23
2023-01-23T02:30:27.417Z,10.57
2023-01-23T02:33:08.703Z,11.73
2023-01-23T02:35:37.395Z,12.80
2023-01-23T02:38:10.065Z,9.45
2023-01-23T02:40:42.522Z,9.60
2023-01-23T02:43:15.833Z,14.38
2023-01-23T02:45:49.488Z,11.90
2023-01-23T02:48:17.128Z,13.52
2023-01-23T02:50:46.462Z,15.60
2023-01-23T02:53:14.054Z,11.07
2023-01-23T02:55:43.322Z,12.30
2023-01-23T02:58:29.820Z,10.82
2023-01-23T03:00:57.601Z,11.52
2023-01-23T03:03:25.643Z,11.95
2023-01-23T03:05:55.634Z,9.85
2023-01-23T03:08:23.624Z,9.02
2023-01-23T03:10:51.310Z,10.73
2023-01-23T03:13:18.728Z,8.23
2023-01-23T03:15:46.501Z,17.02
2023-01-23T03:18:14.024Z,12.55
2023-01-23T03:20:42.032Z,13.95
2023-01-23T03:23:09.595Z,16.50
2023-01-23T03:25:37.245Z,17.05
2023-01-23T03:28:25.073Z,15.93
2023-01-23T03:30:52.624Z,18.30
2023-01-23T03:33:20.096Z,16.17
2023-01-23T03:35:47.544Z,18.38
2023-01-23T03:38:18.049Z,18.58
2023-01-23T03:41:04.647Z,15.43
2023-01-23T03:43:34.580Z,17.38
2023-01-23T03:46:02.096Z,21.80
2023-01-23T03:48:29.834Z,17.23
2023-01-23T03:50:58.088Z,19.98
2023-01-23T03:53:26.587Z,20.67
2023-01-23T03:55:54.069Z,22.40
2023-01-23T03:58:21.670Z,22.70
2023-01-23T04:00:49.231Z,19.45
2023-01-23T04:03:17.218Z,15.45
2023-01-23T04:05:44.671Z,15.40
2023-01-23T04:08:12.136Z,18.98
2023-01-23T04:10:39.665Z,17.23
2023-01-23T04:13:14.184Z,21.98
2023-01-23T04:15:42.033Z,20.13
2023-01-23T04:18:09.522Z,21.45
2023-01-23T04:20:37.072Z,18.70
2023-01-23T04:23:04.551Z,23.27
2023-01-23T04:25:32.099Z,18.23
2023-01-23T04:27:59.593Z,18.90
2023-01-23T04:30:27.880Z,18.13
2023-01-23T04:32:56.976Z,17.48
2023-01-23T04:35:24.555Z,16.98
2023-01-23T04:37:52.694Z,19.55
2023-01-23T04:40:21.673Z,18.77
2023-01-23T04:42:56.422Z,18.98
2023-01-23T04:45:33.768Z,19.90
2023-01-23T04:48:21.902Z,22.00
2023-01-23T04:50:50.096Z,20.15
2023-01-23T04:53:17.567Z,18.75
2023-01-23T04:55:49.680Z,16.77
2023-01-23T04:58:19.347Z,19.45
2023-01-23T05:00:47.057Z,15.23
2023-01-23T05:03:18.657Z,17.95
2023-01-23T05:05:48.407Z,21.73
2023-01-23T05:08:16.150Z,21.45
2023-01-23T05:10:51.136Z,15.18
2023-01-23T05:13:20.383Z,19.48
2023-01-23T05:15:48.049Z,20.90
2023-01-23T05:18:16.572Z,17.63
2023-01-23T05:20:43.988Z,20.02
2023-01-23T05:23:11.460Z,19.42
2023-01-23T05:25:51.193Z,21.58
2023-01-23T05:28:18.736Z,17.40
2023-01-23T05:30:52.920Z,20.60
2023-01-23T05:33:30.921Z,21.27
2023-01-23T05:36:00.658Z,19.70
2023-01-23T05:38:28.134Z,20.85
2023-01-23T05:40:55.627Z,20.00
2023-01-23T05:43:43.719Z,19.52
2023-01-23T05:46:29.915Z,18.25
2023-01-23T05:48:57.712Z,21.70
2023-01-23T05:51:31.636Z,23.48
2023-01-23T05:54:01.945Z,17.75
2023-01-23T05:56:29.796Z,22.02
2023-01-23T05:59:20.292Z,20.13
2023-01-23T06:02:07.988Z,21.40
2023-01-23T06:04:55.796Z,22.42
2023-01-23T06:07:30.953Z,21.63
2023-01-23T06:09:59.256Z,18.15
2023-01-23T06:12:27.361Z,25.15
2023-01-23T06:14:56.073Z,23.15
2023-01-23T06:17:23.799Z,21.58
2023-01-23T06:19:52.055Z,22.05
2023-01-23T06:22:19.634Z,21.02
2023-01-23T06:25:13.076Z,20.15
2023-01-23T06:27:41.615Z,22.50
2023-01-23T06:30:10.656Z,21.40
2023-01-23T06:32:41.441Z,18.52
2023-01-23T06:35:10.690Z,21.27
2023-01-23T06:37:41.356Z,19.83
2023-01-23T06:40:14.176Z,21.65
2023-01-23T06:42:48.177Z,20.63
2023-01-23T06:45:15.918Z,17.95
2023-01-23T06:47:43.370Z,15.25
2023-01-23T06:50:11.387Z,18.13
2023-01-23T06:52:39.590Z,15.90
2023-01-23T06:55:07.370Z,17.50
2023-01-23T06:57:36.353Z,20.70
2023-01-23T07:00:06.234Z,15.70
2023-01-23T07:02:34.678Z,16.88
2023-01-23T07:05:02.194Z,18.27
2023-01-23T07:07:29.756Z,20.00
2023-01-23T07:09:57.192Z,18.67
2023-01-23T07:12:26.341Z,15.35
2023-01-23T07:14:53.816Z,19.10
2023-01-23T07:17:30.654Z,19.50
2023-01-23T07:19:58.203Z,16.48
2023-01-23T07:22:26.183Z,17.27
2023-01-23T07:24:53.654Z,18.15
2023-01-23T07:27:21.113Z,17.60
2023-01-23T07:29:48.784Z,14.73
2023-01-23T07:32:16.240Z,13.82
2023-01-23T07:34:43.716Z,19.08
2023-01-23T07:37:11.166Z,14.30
2023-01-23T07:39:38.656Z,13.40
2023-01-23T07:42:06.173Z,12.73
2023-01-23T07:44:33.725Z,14.00
2023-01-23T07:47:01.475Z,15.02
2023-01-23T07:49:28.988Z,12.00
2023-01-23T07:51:56.501Z,14.45
2023-01-23T07:54:23.949Z,11.52
2023-01-23T07:56:51.645Z,12.20
2023-01-23T07:59:19.183Z,12.50
2023-01-23T08:01:46.737Z,12.13
2023-01-23T08:04:14.262Z,12.55
2023-01-23T08:06:41.776Z,11.75
2023-01-23T08:09:09.318Z,12.77
2023-01-23T08:11:37.248Z,13.13
2023-01-23T08:14:05.935Z,12.93
2023-01-23T08:16:37.522Z,12.73
2023-01-23T08:19:08.682Z,13.32
2023-01-23T08:21:36.625Z,13.05
2023-01-23T08:24:05.062Z,17.17
2023-01-23T08:26:33.463Z,15.27
2023-01-23T08:29:00.972Z,12.23
2023-01-23T08:31:28.607Z,15.35
2023-01-23T08:33:56.390Z,14.93
2023-01-23T08:36:23.950Z,14.43
2023-01-23T08:38:51.379Z,15.07
2023-01-23T08:41:19.529Z,13.32
2023-01-23T08:43:46.942Z,13.90
2023-01-23T08:46:14.510Z,13.18
2023-01-23T08:48:42.005Z,12.50
2023-01-23T08:51:12.800Z,14.02
2023-01-23T08:53:41.114Z,14.02
2023-01-23T08:56:16.679Z,15.20
2023-01-23T08:58:46.056Z,14.30
2023-01-23T09:01:21.341Z,14.82
2023-01-23T09:03:49.033Z,13.80
2023-01-23T09:06:18.904Z,14.77
2023-01-23T09:08:46.501Z,14.60
2023-01-23T09:11:14.502Z,16.10
2023-01-23T09:13:42.222Z,14.45
2023-01-23T09:16:10.015Z,15.23
2023-01-23T09:18:38.168Z,14.95
2023-01-23T09:21:11.374Z,14.95
2023-01-23T09:23:39.349Z,14.55
2023-01-23T09:26:08.984Z,15.70
2023-01-23T09:28:37.578Z,13.63
2023-01-23T09:31:07.414Z,13.35
2023-01-23T09:33:35.402Z,14.32
2023-01-23T09:36:03.931Z,15.02
2023-01-23T09:38:34.175Z,16.33
2023-01-23T09:41:14.586Z,13.23
2023-01-23T09:43:58.728Z,12.25
2023-01-23T09:46:32.832Z,14.20
2023-01-23T09:49:11.707Z,15.23
2023-01-23T09:51:44.962Z,12.63
2023-01-23T09:54:44.571Z,13.65
2023-01-23T09:57:15.654Z,12.93
2023-01-23T09:59:59.818Z,11.48
2023-01-23T10:02:29.294Z,11.68
2023-01-23T10:04:58.555Z,11.60
2023-01-23T10:07:52.084Z,11.70
2023-01-23T10:11:01.095Z,12.40
2023-01-23T10:13:34.243Z,11.02
2023-01-23T10:16:45.017Z,8.70
2023-01-23T10:19:36.758Z,11.18
2023-01-23T10:22:43.504Z,10.13
2023-01-23T10:25:18.790Z,10.40
2023-01-23T10:27:48.917Z,10.77
2023-01-23T10:30:28.277Z,9.93
2023-01-23T10:33:13.210Z,9.90
2023-01-23T10:35:58.528Z,7.75
2023-01-23T10:38:27.173Z,9.23
2023-01-23T10:41:13.186Z,8.55
2023-01-23T10:43:42.589Z,7.88
2023-01-23T10:46:15.992Z,8.43
2023-01-23T10:48:46.935Z,7.60
2023-01-23T10:51:38.288Z,9.20
2023-01-23T10:54:36.825Z,8.18
2023-01-23T10:57:22.180Z,8.15
2023-01-23T10:59:52.503Z,6.50
2023-01-23T11:02:26.578Z,7.22
2023-01-23T11:04:54.458Z,7.20
2023-01-23T11:07:25.140Z,7.18
2023-01-23T11:09:54.265Z,6.22
2023-01-23T11:12:25.120Z,7.03
2023-01-23T11:15:21.263Z,6.90
2023-01-23T11:17:50.609Z,6.90
2023-01-23T11:20:33.442Z,6.13
2023-01-23T11:23:15.575Z,7.50
2023-01-23T11:25:44.078Z,7.10
2023-01-23T11:28:35.412Z,8.57
2023-01-23T11:31:19.873Z,8.30
2023-01-23T11:34:01.457Z,6.82
2023-01-23T11:36:56.454Z,7.03
2023-01-23T11:39:45.415Z,8.43
2023-01-23T11:42:14.826Z,7.32
2023-01-23T11:44:46.411Z,6.25
2023-01-23T11:47:45.695Z,6.85
2023-01-23T11:50:30.815Z,6.97
2023-01-23T11:53:05.568Z,7.93
2023-01-23T11:55:53.776Z,6.90
2023-01-23T11:58:50.384Z,6.32
2023-01-23T12:04:39.512Z,6.53
2023-01-23T12:07:26.539Z,6.45
2023-01-23T12:10:03.007Z,5.28
2023-01-23T12:12:42.731Z,5.90
2023-01-23T12:15:29.027Z,4.80
2023-01-23T12:18:27.864Z,5.10
2023-01-23T12:21:20.857Z,5.50
2023-01-23T12:24:00.165Z,5.65
2023-01-23T12:26:29.389Z,6.20
2023-01-23T12:29:12.210Z,7.10
2023-01-23T12:31:41.065Z,3.70
2023-01-23T12:34:45.194Z,3.72
2023-01-23T12:37:30.716Z,2.65
2023-01-23T12:40:13.360Z,3.10
2023-01-23T12:42:57.866Z,2.55
2023-01-23T12:45:28.264Z,2.00
2023-01-23T12:48:28.575Z,1.88
2023-01-23T12:51:20.731Z,1.90
2023-01-23T12:53:52.551Z,1.70
2023-01-23T12:56:25.870Z,1.80
2023-01-23T12:59:18.512Z,1.20
2023-01-23T13:02:12.113Z,1.63
2023-01-23T13:04:51.720Z,1.63
2023-01-23T13:07:38.196Z,1.20
2023-01-23T13:12:33.616Z,1.55
2023-01-23T13:15:38.711Z,2.20
2023-01-23T13:18:27.789Z,1.27
2023-01-23T13:21:22.726Z,1.60
2023-01-23T13:24:10.252Z,1.70
2023-01-23T13:26:37.763Z,1.70
2023-01-23T13:29:07.551Z,1.95
2023-01-23T13:31:47.183Z,1.63
2023-01-23T13:34:17.956Z,1.83
2023-01-23T13:36:50.120Z,1.60
2023-01-23T13:39:17.689Z,1.60
2023-01-23T13:41:50.217Z,1.90
2023-01-23T13:44:35.830Z,2.13
2023-01-23T14:22:57.627Z,2.70
2023-01-23T14:25:25.892Z,2.35
2023-01-23T14:28:06.439Z,3.15
2023-01-23T14:30:34.022Z,2.72
2023-01-23T14:33:01.423Z,2.80
2023-01-23T14:35:32.795Z,3.55
2023-01-23T14:38:06.577Z,2.40
2023-01-23T14:40:47.010Z,3.08
2023-01-23T14:43:28.393Z,3.25
2023-01-23T14:46:37.735Z,3.88
2023-01-23T14:49:07.671Z,3.10
2023-01-23T14:51:36.517Z,2.83
2023-01-23T14:54:10.464Z,4.35
2023-01-23T14:56:39.980Z,3.70
2023-01-23T14:59:16.942Z,4.50
2023-01-23T15:01:57.526Z,3.78
2023-01-23T15:04:28.316Z,4.00
2023-01-23T15:06:59.090Z,4.18
2023-01-23T15:09:42.794Z,3.60
2023-01-23T15:12:21.155Z,3.22
2023-01-23T15:14:54.398Z,4.18
2023-01-23T15:17:22.531Z,2.97
2023-01-23T15:19:59.517Z,4.10
2023-01-23T15:22:29.385Z,3.25
2023-01-23T15:24:57.201Z,2.88
2023-01-23T15:27:32.721Z,2.85
2023-01-23T15:30:40.482Z,2.58
2023-01-23T15:33:25.829Z,2.40
2023-01-23T15:36:02.609Z,3.20
2023-01-23T15:38:30.203Z,2.58
2023-01-23T15:40:58.020Z,2.42
2023-01-23T15:43:25.815Z,2.03
2023-01-23T15:45:53.892Z,2.40
2023-01-23T15:48:21.340Z,2.60
2023-01-23T15:50:49.090Z,3.30
2023-01-23T15:53:16.574Z,2.45
2023-01-23T15:55:43.998Z,2.70
2023-01-23T15:58:17.591Z,2.75
2023-01-23T16:00:45.514Z,2.10
2023-01-23T16:03:14.970Z,3.95
2023-01-23T16:05:42.678Z,4.38
2023-01-23T16:08:20.116Z,3.53
2023-01-23T16:10:47.784Z,3.17
2023-01-23T16:13:15.220Z,3.28
2023-01-23T16:15:43.433Z,3.78
2023-01-23T16:18:10.925Z,2.97
2023-01-23T16:20:44.933Z,3.95
2023-01-23T16:23:18.226Z,3.30
2023-01-23T16:25:46.669Z,3.25
2023-01-23T16:28:16.313Z,5.30
2023-01-23T16:30:45.065Z,3.58
2023-01-23T16:33:13.006Z,3.03
2023-01-23T16:35:41.652Z,2.70
2023-01-23T16:38:22.626Z,3.10
2023-01-23T16:40:53.141Z,3.13
2023-01-23T16:43:22.141Z,2.65
2023-01-23T16:45:49.630Z,3.70
2023-01-23T16:48:26.448Z,3.97
2023-01-23T16:51:03.680Z,3.97
2023-01-23T16:53:35.824Z,2.85
2023-01-23T16:56:04.468Z,3.22
2023-01-23T16:58:38.886Z,3.33
2023-01-23T17:01:14.238Z,4.25
2023-01-23T17:03:42.611Z,2.80
2023-01-23T17:06:15.553Z,3.13
2023-01-23T17:08:43.267Z,3.30
2023-01-23T17:11:18.643Z,3.60
2023-01-23T17:13:46.220Z,3.33
2023-01-23T17:16:26.439Z,5.38
2023-01-23T17:18:55.531Z,4.32
2023-01-23T17:21:25.033Z,3.63
2023-01-23T17:23:52.679Z,3.40
2023-01-23T17:26:20.983Z,5.65
2023-01-23T17:28:48.612Z,5.60
2023-01-23T17:31:23.274Z,5.47
2023-01-23T17:33:52.657Z,6.65
2023-01-23T17:36:20.256Z,6.93
2023-01-23T17:38:47.961Z,5.50
2023-01-23T17:41:17.095Z,4.30
2023-01-23T17:43:44.839Z,4.72
2023-01-23T17:46:26.343Z,4.53
2023-01-23T17:48:55.707Z,3.83
2023-01-23T17:51:25.496Z,4.57
2023-01-23T17:53:53.287Z,2.95
2023-01-23T17:56:20.710Z,3.90
2023-01-23T17:58:48.154Z,4.80
2023-01-23T18:01:22.393Z,3.85
2023-01-23T18:03:51.478Z,3.00
2023-01-23T18:06:19.544Z,3.78
2023-01-23T18:08:47.174Z,5.55
2023-01-23T18:11:22.380Z,5.82
2023-01-23T18:14:08.376Z,4.80
2023-01-23T18:16:45.494Z,4.20
2023-01-23T18:19:20.324Z,3.38
2023-01-23T18:21:53.246Z,2.78
2023-01-23T18:24:24.084Z,4.05
2023-01-23T18:27:06.417Z,3.88
2023-01-23T18:30:10.847Z,4.38
2023-01-23T18:32:47.174Z,2.75
2023-01-23T18:35:49.524Z,2.45
2023-01-23T18:38:40.771Z,4.22
2023-01-23T18:41:26.717Z,3.70
2023-01-23T18:44:06.904Z,4.50
2023-01-23T18:46:34.754Z,4.38
2023-01-23T18:49:02.574Z,2.92
2023-01-23T18:51:33.491Z,4.63
2023-01-23T18:54:10.120Z,4.80
2023-01-23T18:56:46.923Z,3.58
2023-01-23T18:59:49.458Z,3.47
2023-01-23T19:02:31.638Z,3.20
2023-01-23T19:05:14.076Z,3.50
2023-01-23T19:07:42.527Z,3.17
2023-01-23T19:10:15.192Z,3.55
2023-01-23T19:13:20.118Z,2.97
2023-01-23T19:16:31.145Z,3.88
2023-01-23T19:19:15.956Z,4.35
2023-01-23T19:21:46.613Z,3.20
2023-01-23T19:24:19.009Z,3.85
2023-01-23T19:26:47.345Z,5.75
2023-01-23T19:29:21.853Z,5.72
2023-01-23T19:32:06.710Z,4.43
2023-01-23T19:34:34.978Z,5.68
2023-01-23T19:37:03.650Z,8.07
2023-01-23T19:39:31.294Z,5.90
2023-01-23T19:41:59.434Z,7.25
2023-01-23T19:44:28.968Z,5.80
2023-01-23T19:46:56.640Z,9.32
2023-01-23T19:49:25.243Z,7.13
2023-01-23T19:51:52.904Z,5.30
2023-01-23T19:54:22.376Z,6.03
2023-01-23T19:56:51.887Z,5.63
2023-01-23T19:59:19.344Z,6.25
2023-01-23T20:01:49.850Z,4.53
2023-01-23T20:04:23.040Z,7.30
2023-01-23T20:06:52.070Z,5.13
2023-01-23T20:09:20.336Z,4.15
2023-01-23T20:11:48.481Z,4.75
2023-01-23T20:14:16.260Z,5.20
2023-01-23T20:16:44.342Z,5.75
2023-01-23T20:19:16.435Z,5.18
2023-01-23T20:21:45.511Z,7.18
2023-01-23T20:24:14.097Z,3.33
2023-01-23T20:26:41.853Z,5.85
2023-01-23T20:29:10.914Z,3.28
2023-01-23T20:31:38.594Z,4.63
2023-01-23T20:34:08.960Z,6.63
2023-01-23T20:36:37.504Z,5.65
2023-01-23T20:39:07.503Z,5.50
2023-01-23T20:41:35.167Z,5.20
2023-01-23T20:44:02.631Z,4.68
2023-01-23T20:46:30.313Z,4.38
2023-01-23T20:48:58.274Z,4.95
2023-01-23T20:51:27.183Z,3.33
2023-01-23T20:53:54.782Z,4.93
2023-01-23T20:56:27.875Z,3.25
2023-01-23T20:59:15.393Z,6.18
2023-01-23T21:02:02.558Z,3.20
2023-01-23T21:04:36.311Z,3.30
2023-01-23T21:07:04.956Z,3.03
2023-01-23T21:09:32.494Z,3.55
2023-01-23T21:12:00.081Z,2.35
2023-01-23T21:14:29.291Z,2.50
2023-01-23T21:16:56.890Z,2.78
2023-01-23T21:19:24.547Z,2.78
2023-01-23T21:21:52.002Z,2.97
2023-01-23T21:24:19.497Z,3.50
2023-01-23T21:26:46.939Z,3.40
2023-01-23T21:29:14.409Z,4.35
2023-01-23T21:31:42.927Z,4.80
2023-01-23T21:34:13.866Z,3.83
2023-01-23T21:36:42.545Z,3.63
2023-01-23T21:39:13.266Z,4.10
2023-01-23T21:41:42.126Z,2.90
2023-01-23T21:44:11.099Z,4.22
2023-01-23T21:46:39.115Z,3.22
2023-01-23T21:49:06.832Z,3.05
2023-01-23T21:51:34.308Z,2.72
2023-01-23T21:54:01.847Z,3.22
2023-01-23T21:56:29.480Z,2.70
2023-01-23T21:58:57.004Z,3.03
2023-01-23T22:01:44.711Z,2.58
2023-01-23T22:04:22.562Z,1.98
2023-01-23T22:06:55.707Z,4.50
2023-01-23T22:09:25.331Z,6.20
2023-01-23T22:11:53.694Z,3.83
2023-01-23T22:14:22.277Z,6.85
2023-01-23T22:16:50.923Z,4.45
2023-01-23T22:19:24.620Z,4.85
2023-01-23T22:21:57.409Z,3.05
2023-01-23T22:24:24.984Z,3.90
2023-01-23T22:26:52.493Z,4.40
2023-01-23T22:29:20.408Z,7.25
2023-01-23T22:31:48.119Z,4.65
2023-01-23T22:34:15.694Z,7.47
2023-01-23T22:36:43.131Z,6.35
2023-01-23T22:39:13.409Z,5.45
2023-01-23T22:41:40.918Z,8.43
2023-01-23T22:44:08.394Z,7.05
2023-01-23T22:46:35.920Z,6.97
2023-01-23T22:49:03.441Z,7.00
2023-01-23T22:51:31.129Z,8.05
2023-01-23T22:53:58.998Z,6.85
2023-01-23T22:56:27.789Z,8.80
2023-01-23T22:58:56.962Z,6.63
2023-01-23T23:01:25.613Z,6.53
2023-01-23T23:03:53.702Z,6.63
2023-01-23T23:06:21.163Z,6.43
2023-01-23T23:08:49.245Z,6.25
2023-01-23T23:11:20.188Z,5.45
2023-01-23T23:13:48.118Z,5.50
2023-01-23T23:16:22.016Z,3.22
2023-01-23T23:18:51.571Z,5.40
2023-01-23T23:21:24.803Z,4.72
2023-01-23T23:23:56.708Z,3.65
2023-01-23T23:26:26.512Z,4.32
2023-01-23T23:28:55.174Z,3.60
2023-01-23T23:31:22.839Z,5.60
2023-01-23T23:33:50.671Z,5.75
2023-01-23T23:36:18.309Z,5.00
2023-01-23T23:38:45.796Z,3.70
2023-01-23T23:41:15.277Z,5.13
2023-01-23T23:43:43.378Z,4.22
2023-01-23T23:46:12.651Z,3.58
2023-01-23T23:48:40.605Z,6.32
2023-01-23T23:51:11.962Z,4.85
2023-01-23T23:53:39.646Z,5.50
2023-01-23T23:56:07.613Z,3.60
2023-01-23T23:58:38.744Z,4.00
